Beloit, KS

5:36 AM CDT on September 17, 2014 (GMT -0500)
Blosser Municipal | Change Station
CLOSE
Current Station
Airport
Location: Concordia,
Elevation: 1483 ft
Nearby Weather Stations

Elev 1483 ft 39.55 °N, 97.65 °W | Updated 41 minutes ago

Mostly Cloudy
Mostly Cloudy
65 °F
Feels Like 65 °F
N
16
Wind Variable Wind from South

Today
High -- | Low -- °F
--% Chance of Precip.
Yesterday
High -- | Low -- °F
Precip. -- in
7:15 AM 7:37 PM
Last Quarter, 37% visible
Pressure 29.85 in
Visibility 5.0 miles
Clouds Overcast 400 ft
Dew Point 65 °F
Humidity 100%
Rainfall 0.00 in
Snow Depth Not available.
UV 0 out of 12
Pollen 6.30 out of 12
Air Quality Not available.
Flu Activity Not available.
METAR KCNK 170955Z AUTO 19014KT 5SM BR OVC004 18/18 A2988 RMK AO2 SLP106 T01830183

More Conditions Fewer Conditions

Pressure 29.85 in
Visibility 5.0 miles
Clouds Overcast 400 ft
Dew Point 65 °F
Humidity 100%
Rainfall 0.00 in
Snow Depth Not available.
UV 0 out of 12
Pollen 6.30 out of 12
Air Quality Not available.
Flu Activity Not available.
METAR KCNK 170955Z AUTO 19014KT 5SM BR OVC004 18/18 A2988 RMK AO2 SLP106 T01830183

More Conditions Fewer Conditions

10-Day Weather Forecast

Almanac

Astronomy

Sep. 17, 2014 Rise Set
Actual Time 7:15 AM CDT 7:37 PM CDT
Civil Twilight 6:48 AM CDT 8:04 PM CDT
Nautical Twilight 6:16 AM CDT 8:36 PM CDT
Astronomical Twilight 5:44 AM CDT 9:08 PM CDT
Moon 1:17 AM CDT 3:47 PM CDT
Length of Visible Light 13h 15m
Length of Day
12h 22m
Tomorrow will be 2m 33s shorter.
Last Quarter, 37% of the Moon is Illuminated
Today
Last Quarter
Sep 24
New
Oct 1
First Quarter
Oct 8
Full
Oct 15
Last Quarter

Today's Extremes

State Highs State Lows

Community

WunderPhotos

Upload Photos

1,753,993 photos uploaded!

Nearby

Snow Depth

Station Depth Elevation
No new snow has been reported.

Earthquake Activity

City Distance Mag. Time & Date
No recent earthquake activity has been reported nearby.
Minimum magnitude displayed is 2.5.

Coastal Water Temperatures

Place Temperature
No Stations Reporting

Nearby Weather Stations